Terminal Aerodrome Forecast
Issued by NWS

Home | Current Version | Previous Version | Text Only | Print | Product List | Glossary On
Versions: 1 2 3 4 5 6 7 8 9 10 11 12 13 14 15
000
FTUS42 KMLB 041127
TAFSUA
TAF
KSUA 041127Z 0412/0512 20003KT P6SM FEW100 BKN250
     FM041400 VRB03KT P6SM SCT020 SCT250
     FM041800 11008KT P6SM SCT040 SCT250
     FM050000 13006KT P6SM FEW040 SCT250
     FM050600 00000KT P6SM SCT250=

USA.gov is the U.S. government's official web portal to all federal, state and local government web resources and services.